General Aviation Weather

Text Reports

Enter one or more of the following location identifiers separated by a space:

Zip Code, Four-Character ICAO or Three-Character IATA airport codes.

METAR - Aviation Routine Weather Report
LTBO - Usak,
Updated at 3:50 PM GMT on July 09, 2014 (6:50 PM EEST):
METAR LTBO 091550Z 29013KT 9999 FEW040 32/04 Q1009
TAF - Terminal Area Forecast
LTBO - Usak,
Updated at 3:50 PM GMT on July 09, 2014 (6:50 PM EEST):
No TAF is currently available for this location.
Decoded:
No decoded TAF is available.
PIREP - Pilot Weather Report
LTBO - Usak,
Updated at 3:50 PM GMT on July 09, 2014 (6:50 PM EEST):
No PIREP is currently available for this location.
AIRMET - Airmens Meteorological Information
LTBO - Usak,
Updated at 3:50 PM GMT on July 09, 2014 (6:50 PM EEST):
No AIRMET is currently available for this location.
SIGMET - Significant Meteorological Information
LTBO - Usak,
Updated at 3:50 PM GMT on July 09, 2014 (6:50 PM EEST):
No SIGMET is currently available for this location.
NOTAM - Notice to Airmen
LTBO - Usak,
Updated at 3:50 PM GMT on July 09, 2014 (6:50 PM EEST):
No NOTAM is currently available for this location.
Forecast Area
LTBO - Usak,
Updated at 3:50 PM GMT on July 09, 2014 (6:50 PM EEST):
No NOTAM is currently available for this location.
Aviation Weather Maps